sensor_id;sensor_type;location;lat;lon;timestamp;P1;durP1;ratioP1;P2;durP2;ratioP2
16442;SDS011;8331;51.654;14.376;2022-08-02T00:00:09;2.67;;;2.57;;
16442;SDS011;8331;51.654;14.376;2022-08-02T00:02:37;2.80;;;2.70;;
16442;SDS011;8331;51.654;14.376;2022-08-02T00:05:05;2.80;;;2.60;;
16442;SDS011;8331;51.654;14.376;2022-08-02T00:07:32;2.40;;;2.30;;
16442;SDS011;8331;51.654;14.376;2022-08-02T00:10:06;2.40;;;2.30;;
16442;SDS011;8331;51.654;14.376;2022-08-02T00:12:36;2.70;;;2.60;;
16442;SDS011;8331;51.654;14.376;2022-08-02T00:15:05;3.00;;;2.80;;
16442;SDS011;8331;51.654;14.376;2022-08-02T00:17:32;2.77;;;2.50;;
16442;SDS011;8331;51.654;14.376;2022-08-02T00:19:59;2.57;;;2.47;;
16442;SDS011;8331;51.654;14.376;2022-08-02T00:22:27;2.93;;;2.73;;
16442;SDS011;8331;51.654;14.376;2022-08-02T00:24:54;2.93;;;2.73;;
16442;SDS011;8331;51.654;14.376;2022-08-02T00:27:21;2.90;;;2.80;;
16442;SDS011;8331;51.654;14.376;2022-08-02T00:29:48;2.27;;;2.17;;
16442;SDS011;8331;51.654;14.376;2022-08-02T00:32:23;3.30;;;3.10;;
16442;SDS011;8331;51.654;14.376;2022-08-02T00:34:49;2.90;;;2.70;;
16442;SDS011;8331;51.654;14.376;2022-08-02T00:37:17;2.63;;;2.53;;
16442;SDS011;8331;51.654;14.376;2022-08-02T00:39:44;2.87;;;2.67;;
16442;SDS011;8331;51.654;14.376;2022-08-02T00:42:12;3.00;;;2.70;;
16442;SDS011;8331;51.654;14.376;2022-08-02T00:44:41;2.70;;;2.50;;
16442;SDS011;8331;51.654;14.376;2022-08-02T00:47:08;2.80;;;2.70;;
16442;SDS011;8331;51.654;14.376;2022-08-02T00:49:34;3.10;;;2.90;;
16442;SDS011;8331;51.654;14.376;2022-08-02T00:52:01;3.40;;;3.20;;
16442;SDS011;8331;51.654;14.376;2022-08-02T00:54:28;3.07;;;2.97;;
16442;SDS011;8331;51.654;14.376;2022-08-02T00:56:55;3.00;;;2.90;;
16442;SDS011;8331;51.654;14.376;2022-08-02T00:59:22;2.90;;;2.80;;
16442;SDS011;8331;51.654;14.376;2022-08-02T01:01:48;3.10;;;3.00;;
16442;SDS011;8331;51.654;14.376;2022-08-02T01:04:23;2.80;;;2.60;;
16442;SDS011;8331;51.654;14.376;2022-08-02T01:06:57;3.07;;;2.87;;
16442;SDS011;8331;51.654;14.376;2022-08-02T01:09:24;2.83;;;2.67;;
16442;SDS011;8331;51.654;14.376;2022-08-02T01:11:52;3.00;;;2.80;;
16442;SDS011;8331;51.654;14.376;2022-08-02T01:14:18;2.90;;;2.70;;
16442;SDS011;8331;51.654;14.376;2022-08-02T01:16:47;2.90;;;2.80;;
16442;SDS011;8331;51.654;14.376;2022-08-02T01:19:39;2.73;;;2.63;;
16442;SDS011;8331;51.654;14.376;2022-08-02T01:30:57;3.00;;;2.80;;
16442;SDS011;8331;51.654;14.376;2022-08-02T01:33:47;3.20;;;3.10;;
16442;SDS011;8331;51.654;14.376;2022-08-02T01:36:37;3.10;;;2.90;;
16442;SDS011;8331;51.654;14.376;2022-08-02T01:39:06;2.87;;;2.67;;
16442;SDS011;8331;51.654;14.376;2022-08-02T01:41:52;2.70;;;2.60;;
16442;SDS011;8331;51.654;14.376;2022-08-02T01:44:24;3.10;;;2.90;;
16442;SDS011;8331;51.654;14.376;2022-08-02T01:46:53;3.53;;;3.23;;
16442;SDS011;8331;51.654;14.376;2022-08-02T01:49:25;3.20;;;3.10;;
16442;SDS011;8331;51.654;14.376;2022-08-02T01:51:52;2.90;;;2.70;;
16442;SDS011;8331;51.654;14.376;2022-08-02T01:54:39;3.00;;;2.90;;
16442;SDS011;8331;51.654;14.376;2022-08-02T01:57:06;2.77;;;2.67;;
16442;SDS011;8331;51.654;14.376;2022-08-02T01:59:35;2.73;;;2.63;;
16442;SDS011;8331;51.654;14.376;2022-08-02T02:02:03;3.03;;;2.93;;
16442;SDS011;8331;51.654;14.376;2022-08-02T02:04:34;3.50;;;3.30;;
16442;SDS011;8331;51.654;14.376;2022-08-02T02:07:01;3.43;;;3.33;;
16442;SDS011;8331;51.654;14.376;2022-08-02T02:09:29;3.27;;;2.97;;
16442;SDS011;8331;51.654;14.376;2022-08-02T02:11:57;3.37;;;3.17;;
16442;SDS011;8331;51.654;14.376;2022-08-02T02:14:39;3.17;;;2.97;;
16442;SDS011;8331;51.654;14.376;2022-08-02T02:17:16;3.43;;;3.23;;
16442;SDS011;8331;51.654;14.376;2022-08-02T02:20:05;3.10;;;3.00;;
16442;SDS011;8331;51.654;14.376;2022-08-02T02:22:33;2.90;;;2.80;;
16442;SDS011;8331;51.654;14.376;2022-08-02T02:25:00;3.63;;;3.43;;
16442;SDS011;8331;51.654;14.376;2022-08-02T02:27:30;3.00;;;2.90;;
16442;SDS011;8331;51.654;14.376;2022-08-02T02:29:57;3.30;;;3.10;;
16442;SDS011;8331;51.654;14.376;2022-08-02T02:32:26;3.50;;;3.30;;
16442;SDS011;8331;51.654;14.376;2022-08-02T02:34:53;3.27;;;3.07;;
16442;SDS011;8331;51.654;14.376;2022-08-02T02:37:22;3.67;;;3.37;;
16442;SDS011;8331;51.654;14.376;2022-08-02T02:39:50;3.83;;;3.63;;
16442;SDS011;8331;51.654;14.376;2022-08-02T02:42:19;4.00;;;3.80;;
16442;SDS011;8331;51.654;14.376;2022-08-02T02:44:50;3.67;;;3.47;;
16442;SDS011;8331;51.654;14.376;2022-08-02T02:47:17;3.57;;;3.37;;
16442;SDS011;8331;51.654;14.376;2022-08-02T02:49:45;3.63;;;3.43;;
16442;SDS011;8331;51.654;14.376;2022-08-02T02:52:14;3.70;;;3.50;;
16442;SDS011;8331;51.654;14.376;2022-08-02T02:54:42;3.90;;;3.60;;
16442;SDS011;8331;51.654;14.376;2022-08-02T02:57:10;3.60;;;3.40;;
16442;SDS011;8331;51.654;14.376;2022-08-02T02:59:37;3.20;;;3.10;;
16442;SDS011;8331;51.654;14.376;2022-08-02T03:02:15;3.33;;;3.13;;
16442;SDS011;8331;51.654;14.376;2022-08-02T03:04:42;3.37;;;3.17;;
16442;SDS011;8331;51.654;14.376;2022-08-02T03:07:24;3.60;;;3.40;;
16442;SDS011;8331;51.654;14.376;2022-08-02T03:09:51;3.47;;;3.30;;
16442;SDS011;8331;51.654;14.376;2022-08-02T03:12:21;3.20;;;3.00;;
16442;SDS011;8331;51.654;14.376;2022-08-02T03:14:57;3.23;;;3.03;;
16442;SDS011;8331;51.654;14.376;2022-08-02T03:17:35;3.30;;;3.10;;
16442;SDS011;8331;51.654;14.376;2022-08-02T03:20:05;3.50;;;3.30;;
16442;SDS011;8331;51.654;14.376;2022-08-02T03:22:37;3.10;;;3.00;;
16442;SDS011;8331;51.654;14.376;2022-08-02T03:25:04;3.30;;;3.10;;
16442;SDS011;8331;51.654;14.376;2022-08-02T03:27:32;3.10;;;3.00;;
16442;SDS011;8331;51.654;14.376;2022-08-02T03:29:59;2.90;;;2.80;;
16442;SDS011;8331;51.654;14.376;2022-08-02T03:32:27;3.40;;;3.20;;
16442;SDS011;8331;51.654;14.376;2022-08-02T03:34:54;3.57;;;3.27;;
16442;SDS011;8331;51.654;14.376;2022-08-02T03:37:21;3.50;;;3.20;;
16442;SDS011;8331;51.654;14.376;2022-08-02T03:39:48;3.17;;;2.97;;
16442;SDS011;8331;51.654;14.376;2022-08-02T03:42:18;2.90;;;2.80;;
16442;SDS011;8331;51.654;14.376;2022-08-02T03:44:46;3.00;;;2.90;;
16442;SDS011;8331;51.654;14.376;2022-08-02T03:47:14;2.90;;;2.80;;
16442;SDS011;8331;51.654;14.376;2022-08-02T03:49:41;3.00;;;2.80;;
16442;SDS011;8331;51.654;14.376;2022-08-02T03:52:08;3.20;;;3.00;;
16442;SDS011;8331;51.654;14.376;2022-08-02T03:54:35;3.47;;;3.27;;
16442;SDS011;8331;51.654;14.376;2022-08-02T03:57:10;3.37;;;3.17;;
16442;SDS011;8331;51.654;14.376;2022-08-02T03:59:43;3.13;;;3.03;;
16442;SDS011;8331;51.654;14.376;2022-08-02T04:02:11;3.33;;;3.13;;
16442;SDS011;8331;51.654;14.376;2022-08-02T04:04:38;3.17;;;3.07;;
16442;SDS011;8331;51.654;14.376;2022-08-02T04:07:05;3.30;;;3.10;;
16442;SDS011;8331;51.654;14.376;2022-08-02T04:09:33;3.23;;;3.13;;
16442;SDS011;8331;51.654;14.376;2022-08-02T04:12:00;3.63;;;3.43;;
16442;SDS011;8331;51.654;14.376;2022-08-02T04:14:26;3.30;;;3.20;;
16442;SDS011;8331;51.654;14.376;2022-08-02T04:16:54;3.60;;;3.40;;
16442;SDS011;8331;51.654;14.376;2022-08-02T04:19:31;3.87;;;3.67;;
16442;SDS011;8331;51.654;14.376;2022-08-02T04:22:01;3.40;;;3.30;;
16442;SDS011;8331;51.654;14.376;2022-08-02T04:24:30;3.90;;;3.70;;
16442;SDS011;8331;51.654;14.376;2022-08-02T04:27:03;3.70;;;3.50;;
16442;SDS011;8331;51.654;14.376;2022-08-02T04:29:45;3.97;;;3.77;;
16442;SDS011;8331;51.654;14.376;2022-08-02T04:32:13;3.70;;;3.40;;
16442;SDS011;8331;51.654;14.376;2022-08-02T04:34:40;3.90;;;3.70;;
16442;SDS011;8331;51.654;14.376;2022-08-02T04:37:28;3.33;;;3.13;;
16442;SDS011;8331;51.654;14.376;2022-08-02T04:39:55;3.70;;;3.50;;
16442;SDS011;8331;51.654;14.376;2022-08-02T04:42:22;3.97;;;3.77;;
16442;SDS011;8331;51.654;14.376;2022-08-02T04:44:50;3.80;;;3.50;;
16442;SDS011;8331;51.654;14.376;2022-08-02T04:47:21;4.10;;;3.90;;
16442;SDS011;8331;51.654;14.376;2022-08-02T04:50:07;4.10;;;3.80;;
16442;SDS011;8331;51.654;14.376;2022-08-02T04:52:35;4.80;;;4.50;;
16442;SDS011;8331;51.654;14.376;2022-08-02T04:55:01;4.83;;;4.53;;
16442;SDS011;8331;51.654;14.376;2022-08-02T04:57:28;4.40;;;4.20;;
16442;SDS011;8331;51.654;14.376;2022-08-02T05:00:18;4.77;;;4.57;;
16442;SDS011;8331;51.654;14.376;2022-08-02T05:02:45;4.47;;;4.27;;
16442;SDS011;8331;51.654;14.376;2022-08-02T05:05:12;4.30;;;4.10;;
16442;SDS011;8331;51.654;14.376;2022-08-02T05:07:39;4.30;;;4.00;;
16442;SDS011;8331;51.654;14.376;2022-08-02T05:10:06;5.13;;;4.73;;
16442;SDS011;8331;51.654;14.376;2022-08-02T05:12:33;4.70;;;4.40;;
16442;SDS011;8331;51.654;14.376;2022-08-02T05:15:00;5.17;;;4.87;;
16442;SDS011;8331;51.654;14.376;2022-08-02T05:17:26;4.67;;;4.27;;
16442;SDS011;8331;51.654;14.376;2022-08-02T05:19:53;4.80;;;4.50;;
16442;SDS011;8331;51.654;14.376;2022-08-02T05:22:20;4.33;;;4.10;;
16442;SDS011;8331;51.654;14.376;2022-08-02T05:24:46;5.03;;;4.73;;
16442;SDS011;8331;51.654;14.376;2022-08-02T05:27:13;4.50;;;4.30;;
16442;SDS011;8331;51.654;14.376;2022-08-02T05:29:46;5.00;;;4.60;;
16442;SDS011;8331;51.654;14.376;2022-08-02T05:32:19;5.37;;;4.27;;
16442;SDS011;8331;51.654;14.376;2022-08-02T05:34:50;5.00;;;4.50;;
16442;SDS011;8331;51.654;14.376;2022-08-02T05:37:17;5.07;;;4.77;;
16442;SDS011;8331;51.654;14.376;2022-08-02T05:39:44;5.70;;;5.40;;
16442;SDS011;8331;51.654;14.376;2022-08-02T05:42:21;5.17;;;4.87;;
16442;SDS011;8331;51.654;14.376;2022-08-02T05:44:48;4.47;;;4.27;;
16442;SDS011;8331;51.654;14.376;2022-08-02T05:47:15;5.50;;;5.10;;
16442;SDS011;8331;51.654;14.376;2022-08-02T05:49:42;4.97;;;4.67;;
16442;SDS011;8331;51.654;14.376;2022-08-02T05:52:13;4.30;;;4.10;;
16442;SDS011;8331;51.654;14.376;2022-08-02T05:55:04;4.40;;;4.20;;
16442;SDS011;8331;51.654;14.376;2022-08-02T06:00:21;3.70;;;3.50;;
16442;SDS011;8331;51.654;14.376;2022-08-02T06:05:45;4.10;;;3.73;;
16442;SDS011;8331;51.654;14.376;2022-08-02T06:08:15;4.20;;;3.80;;
16442;SDS011;8331;51.654;14.376;2022-08-02T06:10:42;3.70;;;3.50;;
16442;SDS011;8331;51.654;14.376;2022-08-02T06:13:12;3.80;;;3.50;;
16442;SDS011;8331;51.654;14.376;2022-08-02T06:15:40;4.73;;;4.43;;
16442;SDS011;8331;51.654;14.376;2022-08-02T06:18:18;5.37;;;5.07;;
16442;SDS011;8331;51.654;14.376;2022-08-02T06:20:54;5.60;;;5.30;;
16442;SDS011;8331;51.654;14.376;2022-08-02T06:23:24;5.80;;;5.40;;
16442;SDS011;8331;51.654;14.376;2022-08-02T06:25:51;5.43;;;5.03;;
16442;SDS011;8331;51.654;14.376;2022-08-02T06:28:18;5.10;;;4.80;;
16442;SDS011;8331;51.654;14.376;2022-08-02T06:30:46;6.67;;;6.27;;
16442;SDS011;8331;51.654;14.376;2022-08-02T06:33:13;7.77;;;7.37;;
16442;SDS011;8331;51.654;14.376;2022-08-02T06:38:26;7.83;;;7.33;;
16442;SDS011;8331;51.654;14.376;2022-08-02T06:41:03;8.90;;;8.20;;
16442;SDS011;8331;51.654;14.376;2022-08-02T06:43:43;12.10;;;11.20;;
16442;SDS011;8331;51.654;14.376;2022-08-02T06:46:20;10.83;;;10.10;;
16442;SDS011;8331;51.654;14.376;2022-08-02T06:49:07;10.37;;;9.70;;
16442;SDS011;8331;51.654;14.376;2022-08-02T06:51:34;9.73;;;9.13;;
16442;SDS011;8331;51.654;14.376;2022-08-02T06:54:00;9.60;;;8.70;;
16442;SDS011;8331;51.654;14.376;2022-08-02T06:56:27;7.87;;;7.47;;
16442;SDS011;8331;51.654;14.376;2022-08-02T06:58:53;8.87;;;8.27;;
16442;SDS011;8331;51.654;14.376;2022-08-02T07:01:20;8.43;;;7.80;;
16442;SDS011;8331;51.654;14.376;2022-08-02T07:03:47;7.60;;;7.10;;
16442;SDS011;8331;51.654;14.376;2022-08-02T07:06:14;8.03;;;7.60;;
16442;SDS011;8331;51.654;14.376;2022-08-02T07:08:40;7.23;;;6.83;;
16442;SDS011;8331;51.654;14.376;2022-08-02T07:11:24;7.17;;;6.67;;
16442;SDS011;8331;51.654;14.376;2022-08-02T07:13:51;7.33;;;6.73;;
16442;SDS011;8331;51.654;14.376;2022-08-02T07:16:17;6.73;;;6.33;;
16442;SDS011;8331;51.654;14.376;2022-08-02T07:18:44;5.77;;;5.37;;
16442;SDS011;8331;51.654;14.376;2022-08-02T07:21:11;5.87;;;5.57;;
16442;SDS011;8331;51.654;14.376;2022-08-02T07:23:37;5.27;;;4.97;;
16442;SDS011;8331;51.654;14.376;2022-08-02T07:26:04;5.67;;;5.20;;
16442;SDS011;8331;51.654;14.376;2022-08-02T07:28:31;5.43;;;4.93;;
16442;SDS011;8331;51.654;14.376;2022-08-02T07:30:57;5.03;;;4.63;;
16442;SDS011;8331;51.654;14.376;2022-08-02T07:33:24;5.30;;;4.90;;
16442;SDS011;8331;51.654;14.376;2022-08-02T07:36:04;5.67;;;5.27;;
16442;SDS011;8331;51.654;14.376;2022-08-02T07:38:34;5.80;;;5.20;;
16442;SDS011;8331;51.654;14.376;2022-08-02T07:41:02;5.33;;;4.93;;
16442;SDS011;8331;51.654;14.376;2022-08-02T07:43:29;4.20;;;3.87;;
16442;SDS011;8331;51.654;14.376;2022-08-02T07:45:55;7.47;;;3.90;;
16442;SDS011;8331;51.654;14.376;2022-08-02T07:48:26;4.10;;;3.77;;
16442;SDS011;8331;51.654;14.376;2022-08-02T07:50:53;3.40;;;3.20;;
16442;SDS011;8331;51.654;14.376;2022-08-02T07:53:19;3.53;;;3.33;;
16442;SDS011;8331;51.654;14.376;2022-08-02T07:56:06;3.80;;;3.50;;
16442;SDS011;8331;51.654;14.376;2022-08-02T07:58:33;3.83;;;3.50;;
16442;SDS011;8331;51.654;14.376;2022-08-02T08:00:59;3.77;;;3.27;;
16442;SDS011;8331;51.654;14.376;2022-08-02T08:03:26;3.50;;;3.20;;
16442;SDS011;8331;51.654;14.376;2022-08-02T08:05:53;6.90;;;3.23;;
16442;SDS011;8331;51.654;14.376;2022-08-02T08:08:20;3.23;;;3.03;;
16442;SDS011;8331;51.654;14.376;2022-08-02T08:10:47;3.70;;;3.47;;
16442;SDS011;8331;51.654;14.376;2022-08-02T08:13:14;3.60;;;3.30;;
16442;SDS011;8331;51.654;14.376;2022-08-02T08:15:41;3.50;;;3.20;;
16442;SDS011;8331;51.654;14.376;2022-08-02T08:18:17;5.97;;;3.23;;
16442;SDS011;8331;51.654;14.376;2022-08-02T08:20:45;3.70;;;3.40;;
16442;SDS011;8331;51.654;14.376;2022-08-02T08:23:11;5.00;;;3.80;;
16442;SDS011;8331;51.654;14.376;2022-08-02T08:25:38;4.10;;;3.60;;
16442;SDS011;8331;51.654;14.376;2022-08-02T08:28:07;4.10;;;3.77;;
16442;SDS011;8331;51.654;14.376;2022-08-02T08:30:34;3.87;;;3.47;;
16442;SDS011;8331;51.654;14.376;2022-08-02T08:33:00;3.83;;;3.53;;
16442;SDS011;8331;51.654;14.376;2022-08-02T08:35:28;5.03;;;4.60;;
16442;SDS011;8331;51.654;14.376;2022-08-02T08:37:54;4.23;;;3.50;;
16442;SDS011;8331;51.654;14.376;2022-08-02T08:40:23;3.53;;;3.37;;
16442;SDS011;8331;51.654;14.376;2022-08-02T08:42:50;4.50;;;3.63;;
16442;SDS011;8331;51.654;14.376;2022-08-02T08:45:17;4.03;;;2.90;;
16442;SDS011;8331;51.654;14.376;2022-08-02T08:47:43;3.23;;;3.03;;
16442;SDS011;8331;51.654;14.376;2022-08-02T08:50:20;4.83;;;3.20;;
16442;SDS011;8331;51.654;14.376;2022-08-02T08:52:53;3.63;;;2.93;;
16442;SDS011;8331;51.654;14.376;2022-08-02T08:55:23;3.23;;;3.00;;
16442;SDS011;8331;51.654;14.376;2022-08-02T08:57:51;3.73;;;3.40;;
16442;SDS011;8331;51.654;14.376;2022-08-02T09:00:20;3.20;;;3.00;;
16442;SDS011;8331;51.654;14.376;2022-08-02T09:02:46;3.33;;;3.03;;
16442;SDS011;8331;51.654;14.376;2022-08-02T09:05:13;2.97;;;2.77;;
16442;SDS011;8331;51.654;14.376;2022-08-02T09:07:42;3.97;;;3.00;;
16442;SDS011;8331;51.654;14.376;2022-08-02T09:15:59;2.87;;;2.60;;
16442;SDS011;8331;51.654;14.376;2022-08-02T09:18:42;4.60;;;2.50;;
16442;SDS011;8331;51.654;14.376;2022-08-02T09:21:10;2.30;;;2.20;;
16442;SDS011;8331;51.654;14.376;2022-08-02T09:23:39;2.53;;;2.33;;
16442;SDS011;8331;51.654;14.376;2022-08-02T09:26:08;2.70;;;2.60;;
16442;SDS011;8331;51.654;14.376;2022-08-02T09:28:37;2.83;;;2.60;;
16442;SDS011;8331;51.654;14.376;2022-08-02T09:31:06;2.80;;;2.60;;
16442;SDS011;8331;51.654;14.376;2022-08-02T09:33:40;2.43;;;2.27;;
16442;SDS011;8331;51.654;14.376;2022-08-02T09:36:08;3.00;;;2.80;;
16442;SDS011;8331;51.654;14.376;2022-08-02T09:38:51;2.43;;;2.30;;
16442;SDS011;8331;51.654;14.376;2022-08-02T09:41:21;3.40;;;2.50;;
16442;SDS011;8331;51.654;14.376;2022-08-02T09:43:49;2.43;;;2.33;;
16442;SDS011;8331;51.654;14.376;2022-08-02T09:46:31;5.10;;;2.53;;
16442;SDS011;8331;51.654;14.376;2022-08-02T09:49:05;4.27;;;2.40;;
16442;SDS011;8331;51.654;14.376;2022-08-02T09:51:37;2.40;;;2.30;;
16442;SDS011;8331;51.654;14.376;2022-08-02T09:54:06;3.03;;;2.83;;
16442;SDS011;8331;51.654;14.376;2022-08-02T09:56:38;2.33;;;2.23;;
16442;SDS011;8331;51.654;14.376;2022-08-02T09:59:07;3.00;;;2.70;;
16442;SDS011;8331;51.654;14.376;2022-08-02T10:01:35;2.90;;;2.50;;
16442;SDS011;8331;51.654;14.376;2022-08-02T10:04:05;2.50;;;2.40;;
16442;SDS011;8331;51.654;14.376;2022-08-02T10:06:33;2.60;;;2.50;;
16442;SDS011;8331;51.654;14.376;2022-08-02T10:09:00;3.47;;;2.10;;
16442;SDS011;8331;51.654;14.376;2022-08-02T10:11:27;2.20;;;2.00;;
16442;SDS011;8331;51.654;14.376;2022-08-02T10:13:54;2.97;;;2.37;;
16442;SDS011;8331;51.654;14.376;2022-08-02T10:16:21;2.50;;;2.40;;
16442;SDS011;8331;51.654;14.376;2022-08-02T10:18:52;2.80;;;2.60;;
16442;SDS011;8331;51.654;14.376;2022-08-02T10:21:25;2.30;;;2.13;;
16442;SDS011;8331;51.654;14.376;2022-08-02T10:26:38;3.50;;;2.30;;
16442;SDS011;8331;51.654;14.376;2022-08-02T10:29:07;2.07;;;1.97;;
16442;SDS011;8331;51.654;14.376;2022-08-02T10:31:43;2.50;;;2.30;;
16442;SDS011;8331;51.654;14.376;2022-08-02T10:34:14;2.00;;;1.90;;
16442;SDS011;8331;51.654;14.376;2022-08-02T10:36:43;2.40;;;2.30;;
16442;SDS011;8331;51.654;14.376;2022-08-02T10:39:11;3.17;;;2.10;;
16442;SDS011;8331;51.654;14.376;2022-08-02T10:41:38;4.10;;;2.23;;
16442;SDS011;8331;51.654;14.376;2022-08-02T10:44:18;2.10;;;2.00;;
16442;SDS011;8331;51.654;14.376;2022-08-02T10:47:17;2.10;;;2.00;;
16442;SDS011;8331;51.654;14.376;2022-08-02T10:49:47;2.87;;;1.80;;
16442;SDS011;8331;51.654;14.376;2022-08-02T10:52:16;2.67;;;2.00;;
16442;SDS011;8331;51.654;14.376;2022-08-02T10:55:26;4.17;;;2.10;;
16442;SDS011;8331;51.654;14.376;2022-08-02T10:57:48;2.87;;;1.80;;
16442;SDS011;8331;51.654;14.376;2022-08-02T11:00:44;2.00;;;1.90;;
16442;SDS011;8331;51.654;14.376;2022-08-02T11:03:32;1.90;;;1.80;;
16442;SDS011;8331;51.654;14.376;2022-08-02T11:12:07;1.63;;;1.53;;
16442;SDS011;8331;51.654;14.376;2022-08-02T11:14:39;1.90;;;1.80;;
16442;SDS011;8331;51.654;14.376;2022-08-02T11:17:09;1.87;;;1.77;;
16442;SDS011;8331;51.654;14.376;2022-08-02T11:22:51;1.90;;;1.80;;
16442;SDS011;8331;51.654;14.376;2022-08-02T11:27:49;3.93;;;1.97;;
16442;SDS011;8331;51.654;14.376;2022-08-02T11:30:18;1.93;;;1.70;;
16442;SDS011;8331;51.654;14.376;2022-08-02T11:32:55;2.00;;;1.90;;
16442;SDS011;8331;51.654;14.376;2022-08-02T11:35:22;1.80;;;1.70;;
16442;SDS011;8331;51.654;14.376;2022-08-02T11:37:57;1.90;;;1.80;;
16442;SDS011;8331;51.654;14.376;2022-08-02T11:40:24;1.83;;;1.70;;
16442;SDS011;8331;51.654;14.376;2022-08-02T11:43:03;1.90;;;1.80;;
16442;SDS011;8331;51.654;14.376;2022-08-02T11:45:41;2.33;;;2.03;;
16442;SDS011;8331;51.654;14.376;2022-08-02T11:48:08;2.07;;;1.97;;
16442;SDS011;8331;51.654;14.376;2022-08-02T11:50:34;2.70;;;1.80;;
16442;SDS011;8331;51.654;14.376;2022-08-02T11:53:01;2.10;;;2.00;;
16442;SDS011;8331;51.654;14.376;2022-08-02T11:55:38;2.20;;;2.00;;
16442;SDS011;8331;51.654;14.376;2022-08-02T11:58:04;1.87;;;1.77;;
16442;SDS011;8331;51.654;14.376;2022-08-02T12:00:33;2.30;;;2.03;;
16442;SDS011;8331;51.654;14.376;2022-08-02T12:03:00;1.90;;;1.80;;
16442;SDS011;8331;51.654;14.376;2022-08-02T12:05:27;2.00;;;1.90;;
16442;SDS011;8331;51.654;14.376;2022-08-02T12:08:14;1.80;;;1.70;;
16442;SDS011;8331;51.654;14.376;2022-08-02T12:10:47;2.20;;;2.00;;
16442;SDS011;8331;51.654;14.376;2022-08-02T12:13:14;2.47;;;2.00;;
16442;SDS011;8331;51.654;14.376;2022-08-02T12:15:42;1.90;;;1.80;;
16442;SDS011;8331;51.654;14.376;2022-08-02T12:18:11;2.10;;;2.00;;
16442;SDS011;8331;51.654;14.376;2022-08-02T12:21:00;1.80;;;1.70;;
16442;SDS011;8331;51.654;14.376;2022-08-02T12:23:28;2.13;;;2.00;;
16442;SDS011;8331;51.654;14.376;2022-08-02T12:26:04;1.93;;;1.83;;
16442;SDS011;8331;51.654;14.376;2022-08-02T12:28:33;1.97;;;1.80;;
16442;SDS011;8331;51.654;14.376;2022-08-02T12:31:00;1.83;;;1.73;;
16442;SDS011;8331;51.654;14.376;2022-08-02T12:33:28;1.47;;;1.40;;
16442;SDS011;8331;51.654;14.376;2022-08-02T12:36:16;1.80;;;1.70;;
16442;SDS011;8331;51.654;14.376;2022-08-02T12:38:56;4.37;;;1.80;;
16442;SDS011;8331;51.654;14.376;2022-08-02T12:41:25;2.10;;;1.90;;
16442;SDS011;8331;51.654;14.376;2022-08-02T12:43:57;1.90;;;1.80;;
16442;SDS011;8331;51.654;14.376;2022-08-02T12:46:24;1.80;;;1.70;;
16442;SDS011;8331;51.654;14.376;2022-08-02T12:48:51;1.80;;;1.70;;
16442;SDS011;8331;51.654;14.376;2022-08-02T12:51:38;1.90;;;1.70;;
16442;SDS011;8331;51.654;14.376;2022-08-02T12:54:34;2.30;;;2.17;;
16442;SDS011;8331;51.654;14.376;2022-08-02T12:57:11;1.93;;;1.83;;
16442;SDS011;8331;51.654;14.376;2022-08-02T12:59:38;2.20;;;1.70;;
16442;SDS011;8331;51.654;14.376;2022-08-02T13:02:07;1.77;;;1.67;;
16442;SDS011;8331;51.654;14.376;2022-08-02T13:04:37;1.80;;;1.70;;
16442;SDS011;8331;51.654;14.376;2022-08-02T13:07:04;1.80;;;1.70;;
16442;SDS011;8331;51.654;14.376;2022-08-02T13:09:35;2.05;;;1.88;;
16442;SDS011;8331;51.654;14.376;2022-08-02T13:12:03;1.63;;;1.52;;
16442;SDS011;8331;51.654;14.376;2022-08-02T13:14:31;1.60;;;1.50;;
16442;SDS011;8331;51.654;14.376;2022-08-02T13:17:05;2.38;;;1.58;;
16442;SDS011;8331;51.654;14.376;2022-08-02T13:19:33;1.70;;;1.60;;
16442;SDS011;8331;51.654;14.376;2022-08-02T13:21:59;2.80;;;1.58;;
16442;SDS011;8331;51.654;14.376;2022-08-02T13:24:29;1.70;;;1.60;;
16442;SDS011;8331;51.654;14.376;2022-08-02T13:27:17;1.80;;;1.58;;
16442;SDS011;8331;51.654;14.376;2022-08-02T13:29:46;3.10;;;1.80;;
16442;SDS011;8331;51.654;14.376;2022-08-02T13:32:14;1.98;;;1.65;;
16442;SDS011;8331;51.654;14.376;2022-08-02T13:34:42;1.70;;;1.60;;
16442;SDS011;8331;51.654;14.376;2022-08-02T13:37:08;2.00;;;1.90;;
16442;SDS011;8331;51.654;14.376;2022-08-02T13:39:35;1.92;;;1.70;;
16442;SDS011;8331;51.654;14.376;2022-08-02T13:42:02;1.70;;;1.60;;
16442;SDS011;8331;51.654;14.376;2022-08-02T13:44:30;2.15;;;1.73;;
16442;SDS011;8331;51.654;14.376;2022-08-02T13:46:57;1.58;;;1.58;;
16442;SDS011;8331;51.654;14.376;2022-08-02T13:49:24;1.80;;;1.70;;
16442;SDS011;8331;51.654;14.376;2022-08-02T13:52:11;1.70;;;1.60;;
16442;SDS011;8331;51.654;14.376;2022-08-02T13:54:38;1.90;;;1.80;;
16442;SDS011;8331;51.654;14.376;2022-08-02T13:57:04;1.80;;;1.70;;
16442;SDS011;8331;51.654;14.376;2022-08-02T13:59:31;1.90;;;1.80;;
16442;SDS011;8331;51.654;14.376;2022-08-02T14:02:18;1.60;;;1.50;;
16442;SDS011;8331;51.654;14.376;2022-08-02T14:04:45;1.60;;;1.52;;
16442;SDS011;8331;51.654;14.376;2022-08-02T14:07:12;2.20;;;1.85;;
16442;SDS011;8331;51.654;14.376;2022-08-02T14:09:38;1.80;;;1.70;;
16442;SDS011;8331;51.654;14.376;2022-08-02T14:12:06;1.70;;;1.60;;
16442;SDS011;8331;51.654;14.376;2022-08-02T14:14:35;1.70;;;1.65;;
16442;SDS011;8331;51.654;14.376;2022-08-02T14:17:02;1.90;;;1.60;;
16442;SDS011;8331;51.654;14.376;2022-08-02T14:19:28;2.35;;;1.65;;
16442;SDS011;8331;51.654;14.376;2022-08-02T14:21:55;1.67;;;1.40;;
16442;SDS011;8331;51.654;14.376;2022-08-02T14:24:43;1.75;;;1.50;;
16442;SDS011;8331;51.654;14.376;2022-08-02T14:27:09;2.38;;;1.90;;
16442;SDS011;8331;51.654;14.376;2022-08-02T14:29:36;2.92;;;1.70;;
16442;SDS011;8331;51.654;14.376;2022-08-02T14:32:03;1.70;;;1.60;;
16442;SDS011;8331;51.654;14.376;2022-08-02T14:34:30;1.73;;;1.55;;
16442;SDS011;8331;51.654;14.376;2022-08-02T14:36:57;1.95;;;1.65;;
16442;SDS011;8331;51.654;14.376;2022-08-02T14:39:24;1.70;;;1.60;;
16442;SDS011;8331;51.654;14.376;2022-08-02T14:41:51;1.50;;;1.40;;
16442;SDS011;8331;51.654;14.376;2022-08-02T14:44:25;1.77;;;1.67;;
16442;SDS011;8331;51.654;14.376;2022-08-02T14:46:52;1.63;;;1.52;;
16442;SDS011;8331;51.654;14.376;2022-08-02T14:49:19;1.85;;;1.67;;
16442;SDS011;8331;51.654;14.376;2022-08-02T14:51:52;1.70;;;1.60;;
16442;SDS011;8331;51.654;14.376;2022-08-02T14:54:19;1.42;;;1.33;;
16442;SDS011;8331;51.654;14.376;2022-08-02T14:56:55;1.45;;;1.35;;
16442;SDS011;8331;51.654;14.376;2022-08-02T14:59:22;2.55;;;1.80;;
16442;SDS011;8331;51.654;14.376;2022-08-02T15:01:48;1.83;;;1.73;;
16442;SDS011;8331;51.654;14.376;2022-08-02T15:04:15;1.70;;;1.60;;
16442;SDS011;8331;51.654;14.376;2022-08-02T15:06:42;1.70;;;1.60;;
16442;SDS011;8331;51.654;14.376;2022-08-02T15:09:08;1.60;;;1.50;;
16442;SDS011;8331;51.654;14.376;2022-08-02T15:11:35;2.47;;;1.67;;
16442;SDS011;8331;51.654;14.376;2022-08-02T15:14:13;2.25;;;1.50;;
16442;SDS011;8331;51.654;14.376;2022-08-02T15:16:50;2.63;;;1.55;;
16442;SDS011;8331;51.654;14.376;2022-08-02T15:19:23;2.63;;;1.50;;
16442;SDS011;8331;51.654;14.376;2022-08-02T15:21:59;1.65;;;1.55;;
16442;SDS011;8331;51.654;14.376;2022-08-02T15:24:28;2.72;;;1.45;;
16442;SDS011;8331;51.654;14.376;2022-08-02T15:26:55;1.98;;;1.85;;
16442;SDS011;8331;51.654;14.376;2022-08-02T15:29:22;1.58;;;1.48;;
16442;SDS011;8331;51.654;14.376;2022-08-02T15:31:48;2.30;;;1.60;;
16442;SDS011;8331;51.654;14.376;2022-08-02T15:34:15;1.73;;;1.63;;
16442;SDS011;8331;51.654;14.376;2022-08-02T15:36:44;2.10;;;1.65;;
16442;SDS011;8331;51.654;14.376;2022-08-02T15:39:10;2.35;;;1.70;;
16442;SDS011;8331;51.654;14.376;2022-08-02T15:41:37;2.55;;;1.50;;
16442;SDS011;8331;51.654;14.376;2022-08-02T15:44:06;2.78;;;1.85;;